Terminal Aerodrome Forecast
Issued by NWS

Home | Current Version | Previous Version | Text Only | Print | Product List | Glossary On
Versions: 1 2 3 4 5 6 7 8 9 10 11 12 13 14
000
FTUS43 KMQT 201730
TAFIWD
TAF
KIWD 201730Z 2018/2118 18010KT P6SM BKN120
     FM202100 19012KT P6SM BKN120 WS015/21040KT
     FM210100 23012G20KT P6SM SCT100
     FM210900 27017G30KT P6SM BKN030
     FM211200 29018G31KT 3SM -SHSN BKN025=

USA.gov is the U.S. government's official web portal to all federal, state and local government web resources and services.